createdAt,value
2018-09-12T00:00:56.425Z,7.70
2018-09-12T00:03:20.295Z,5.07
2018-09-12T00:05:44.207Z,6.43
2018-09-12T00:08:08.168Z,5.90
2018-09-12T00:10:32.056Z,9.37
2018-09-12T00:12:55.996Z,6.87
2018-09-12T00:15:19.863Z,8.63
2018-09-12T00:17:43.781Z,5.23
2018-09-12T00:20:07.676Z,5.40
2018-09-12T00:22:31.519Z,5.23
2018-09-12T00:24:55.495Z,4.63
2018-09-12T00:27:19.378Z,6.77
2018-09-12T00:29:43.788Z,4.43
2018-09-12T00:32:07.626Z,6.90
2018-09-12T00:34:31.459Z,3.50
2018-09-12T00:36:55.339Z,4.00
2018-09-12T00:39:19.222Z,5.40
2018-09-12T00:41:43.098Z,4.23
2018-09-12T00:44:06.996Z,5.23
2018-09-12T00:46:30.896Z,8.43
2018-09-12T00:48:54.731Z,6.43
2018-09-12T00:51:18.605Z,7.30
2018-09-12T00:53:42.457Z,6.73
2018-09-12T00:56:06.533Z,4.13
2018-09-12T00:58:30.391Z,7.07
2018-09-12T01:00:54.240Z,5.37
2018-09-12T01:03:18.102Z,8.57
2018-09-12T01:05:42.974Z,5.63
2018-09-12T01:08:06.922Z,5.97
2018-09-12T01:10:30.803Z,7.30
2018-09-12T01:12:54.851Z,5.97
2018-09-12T01:15:18.696Z,5.90
2018-09-12T01:17:42.605Z,6.50
2018-09-12T01:20:06.442Z,6.50
2018-09-12T01:22:30.323Z,7.77
2018-09-12T01:24:54.187Z,6.43
2018-09-12T01:27:18.043Z,5.37
2018-09-12T01:29:41.896Z,6.10
2018-09-12T01:32:05.789Z,5.90
2018-09-12T01:34:29.621Z,5.67
2018-09-12T01:36:53.507Z,6.73
2018-09-12T01:39:17.338Z,5.50
2018-09-12T01:41:41.207Z,5.40
2018-09-12T01:44:05.307Z,5.87
2018-09-12T01:46:29.145Z,5.73
2018-09-12T01:48:53.019Z,4.93
2018-09-12T01:51:16.860Z,5.23
2018-09-12T01:53:40.725Z,6.83
2018-09-12T01:56:04.554Z,5.07
2018-09-12T01:58:28.488Z,5.30
2018-09-12T02:00:52.329Z,3.50
2018-09-12T02:03:16.172Z,6.10
2018-09-12T02:05:40.040Z,6.33
2018-09-12T02:08:03.903Z,5.83
2018-09-12T02:10:27.792Z,3.43
2018-09-12T02:12:51.639Z,5.37
2018-09-12T02:15:15.496Z,5.57
2018-09-12T02:17:39.334Z,7.27
2018-09-12T02:20:03.410Z,5.17
2018-09-12T02:22:27.243Z,4.53
2018-09-12T02:24:51.093Z,5.67
2018-09-12T02:27:14.933Z,5.80
2018-09-12T02:29:38.770Z,4.83
2018-09-12T02:32:02.625Z,6.43
2018-09-12T02:34:26.466Z,6.57
2018-09-12T02:36:50.441Z,5.87
2018-09-12T02:39:14.298Z,6.87
2018-09-12T02:41:38.243Z,5.63
2018-09-12T02:44:02.104Z,3.23
2018-09-12T02:46:25.941Z,5.63
2018-09-12T02:48:50.312Z,3.90
2018-09-12T02:51:14.147Z,5.97
2018-09-12T02:53:38.018Z,5.33
2018-09-12T02:56:01.842Z,6.10
2018-09-12T02:58:25.717Z,6.83
2018-09-12T03:00:49.577Z,6.20
2018-09-12T03:03:13.456Z,7.13
2018-09-12T03:05:37.296Z,4.53
2018-09-12T03:08:01.275Z,6.30
2018-09-12T03:10:25.087Z,3.73
2018-09-12T03:12:48.940Z,6.23
2018-09-12T03:15:12.771Z,4.70
2018-09-12T03:17:36.642Z,4.53
2018-09-12T03:20:00.478Z,7.40
2018-09-12T03:22:24.495Z,3.70
2018-09-12T03:24:48.332Z,4.13
2018-09-12T03:27:12.188Z,5.00
2018-09-12T03:29:36.032Z,4.53
2018-09-12T03:32:00.266Z,3.30
2018-09-12T03:34:24.107Z,7.10
2018-09-12T03:36:47.936Z,4.57
2018-09-12T03:39:12.473Z,5.93
2018-09-12T03:41:36.322Z,6.00
2018-09-12T03:44:00.219Z,10.30
2018-09-12T03:46:24.082Z,5.37
2018-09-12T03:48:48.181Z,7.97
2018-09-12T03:51:12.043Z,6.63
2018-09-12T03:53:35.930Z,5.63
2018-09-12T03:55:59.786Z,6.20
2018-09-12T03:58:23.637Z,7.80
2018-09-12T04:00:47.553Z,7.87
2018-09-12T04:03:11.376Z,4.60
2018-09-12T04:05:35.212Z,7.63
2018-09-12T04:07:59.042Z,7.83
2018-09-12T04:10:22.956Z,6.53
2018-09-12T04:12:46.880Z,5.00
2018-09-12T04:15:10.716Z,8.33
2018-09-12T04:17:36.922Z,4.00
2018-09-12T04:20:00.846Z,3.77
2018-09-12T04:22:24.792Z,5.47
2018-09-12T04:24:48.640Z,5.80
2018-09-12T04:27:12.492Z,6.47
2018-09-12T04:29:36.365Z,5.37
2018-09-12T04:32:00.337Z,5.50
2018-09-12T04:34:24.197Z,7.50
2018-09-12T04:36:48.042Z,5.23
2018-09-12T04:39:12.793Z,8.67
2018-09-12T04:41:36.683Z,7.30
2018-09-12T04:44:00.522Z,8.20
2018-09-12T04:46:24.501Z,6.40
2018-09-12T04:48:48.401Z,6.60
2018-09-12T04:51:12.240Z,6.90
2018-09-12T04:53:36.080Z,6.27
2018-09-12T04:55:59.963Z,4.80
2018-09-12T04:58:23.847Z,4.90
2018-09-12T05:00:47.855Z,4.53
2018-09-12T05:03:11.688Z,7.60
2018-09-12T05:05:35.543Z,6.87
2018-09-12T05:07:59.511Z,5.10
2018-09-12T05:10:23.568Z,5.67
2018-09-12T05:12:47.467Z,5.37
2018-09-12T05:15:11.315Z,9.53
2018-09-12T05:17:35.200Z,5.90
2018-09-12T05:19:59.072Z,6.07
2018-09-12T05:22:22.921Z,5.63
2018-09-12T05:24:46.773Z,11.37
2018-09-12T05:27:10.662Z,6.97
2018-09-12T05:29:34.535Z,5.77
2018-09-12T05:31:58.410Z,8.07
2018-09-12T05:34:22.275Z,7.40
2018-09-12T05:36:47.249Z,11.13
2018-09-12T05:39:11.614Z,11.67
2018-09-12T05:41:35.466Z,7.50
2018-09-12T05:43:59.304Z,7.27
2018-09-12T05:46:23.195Z,8.80
2018-09-12T05:48:47.195Z,7.97
2018-09-12T05:51:11.155Z,8.53
2018-09-12T05:53:34.974Z,7.90
2018-09-12T05:55:58.863Z,18.83
2018-09-12T05:58:22.869Z,18.73
2018-09-12T06:00:46.753Z,16.60
2018-09-12T06:03:10.623Z,23.37
2018-09-12T06:05:34.496Z,22.77
2018-09-12T06:07:58.402Z,27.13
2018-09-12T06:10:22.233Z,13.83
2018-09-12T06:12:46.124Z,13.83
2018-09-12T06:15:09.973Z,8.03
2018-09-12T06:17:33.825Z,9.90
2018-09-12T06:19:57.672Z,6.57
2018-09-12T06:22:21.543Z,11.30
2018-09-12T06:24:45.627Z,11.73
2018-09-12T06:27:09.461Z,8.43
2018-09-12T06:29:33.323Z,11.27
2018-09-12T06:31:57.164Z,12.43
2018-09-12T06:34:21.110Z,11.83
2018-09-12T06:36:44.959Z,9.70
2018-09-12T06:39:10.601Z,8.00
2018-09-12T06:41:34.428Z,10.23
2018-09-12T06:43:58.282Z,12.93
2018-09-12T06:46:22.154Z,10.97
2018-09-12T06:48:46.175Z,13.07
2018-09-12T06:51:10.132Z,9.40
2018-09-12T06:53:34.001Z,14.17
2018-09-12T06:55:58.111Z,11.20
2018-09-12T06:58:22.310Z,10.50
2018-09-12T07:00:46.590Z,19.07
2018-09-12T07:03:10.742Z,11.83
2018-09-12T07:05:34.953Z,11.47
2018-09-12T07:07:58.867Z,13.83
2018-09-12T07:10:22.709Z,12.83
2018-09-12T07:12:46.608Z,12.03
2018-09-12T07:15:10.484Z,11.13
2018-09-12T07:17:34.391Z,11.70
2018-09-12T07:19:58.358Z,13.73
2018-09-12T07:22:22.244Z,11.37
2018-09-12T07:24:46.243Z,12.03
2018-09-12T07:27:10.101Z,12.70
2018-09-12T07:29:33.959Z,12.43
2018-09-12T07:31:57.824Z,9.07
2018-09-12T07:34:21.691Z,13.33
2018-09-12T07:36:45.562Z,11.03
2018-09-12T07:39:10.969Z,13.73
2018-09-12T07:41:34.933Z,11.57
2018-09-12T07:43:58.848Z,11.20
2018-09-12T07:46:22.839Z,9.87
2018-09-12T07:48:46.833Z,10.40
2018-09-12T07:51:10.678Z,12.13
2018-09-12T07:53:34.505Z,12.27
2018-09-12T07:55:58.442Z,11.33
2018-09-12T07:58:22.270Z,11.97
2018-09-12T08:00:46.246Z,13.07
2018-09-12T08:03:10.365Z,12.30
2018-09-12T08:05:34.197Z,13.90
2018-09-12T08:07:58.064Z,14.27
2018-09-12T08:10:21.911Z,12.30
2018-09-12T08:12:45.872Z,10.57
2018-09-12T08:15:09.811Z,14.93
2018-09-12T08:17:33.645Z,15.53
2018-09-12T08:19:57.533Z,12.87
2018-09-12T08:22:21.403Z,12.60
2018-09-12T08:24:45.498Z,15.33
2018-09-12T08:27:09.379Z,14.70
2018-09-12T08:29:33.241Z,12.73
2018-09-12T08:34:27.180Z,11.60
2018-09-12T08:36:51.171Z,11.97
2018-09-12T08:39:15.025Z,14.17
2018-09-12T08:41:38.905Z,12.00
2018-09-12T08:44:02.971Z,12.77
2018-09-12T08:46:26.813Z,11.90
2018-09-12T08:48:50.784Z,13.40
2018-09-12T08:51:14.640Z,12.77
2018-09-12T08:53:38.474Z,12.17
2018-09-12T08:56:02.333Z,11.57
2018-09-12T08:58:26.216Z,10.33
2018-09-12T09:00:50.222Z,12.97
2018-09-12T09:03:14.219Z,11.00
2018-09-12T09:05:38.096Z,10.20
2018-09-12T09:08:02.055Z,9.53
2018-09-12T09:10:25.935Z,10.53
2018-09-12T09:12:49.755Z,8.97
2018-09-12T09:15:13.960Z,8.70
2018-09-12T09:17:37.832Z,10.43
2018-09-12T09:20:01.703Z,9.10
2018-09-12T09:22:25.603Z,12.03
2018-09-12T09:24:49.422Z,9.03
2018-09-12T09:27:13.379Z,8.07
2018-09-12T09:29:37.232Z,10.43
2018-09-12T09:32:01.088Z,10.20
2018-09-12T09:34:25.000Z,9.33
2018-09-12T09:36:48.835Z,11.17
2018-09-12T09:39:13.007Z,13.03
2018-09-12T09:41:36.833Z,8.70
2018-09-12T09:44:00.820Z,9.10
2018-09-12T09:46:24.698Z,8.27
2018-09-12T09:48:48.588Z,10.40
2018-09-12T09:51:12.548Z,8.57
2018-09-12T09:53:36.379Z,8.20
2018-09-12T09:56:00.354Z,9.77
2018-09-12T09:58:24.383Z,7.83
2018-09-12T10:00:53.498Z,7.33
2018-09-12T10:03:22.784Z,7.87
2018-09-12T10:05:52.042Z,8.73
2018-09-12T10:08:21.279Z,8.07
2018-09-12T10:10:45.138Z,9.03
2018-09-12T10:13:09.114Z,6.57
2018-09-12T10:15:32.994Z,7.60
2018-09-12T10:17:56.880Z,7.30
2018-09-12T10:20:20.790Z,10.63
2018-09-12T10:22:44.638Z,8.50
2018-09-12T10:25:08.595Z,5.67
2018-09-12T10:27:32.451Z,5.70
2018-09-12T10:29:56.299Z,11.50
2018-09-12T10:32:20.178Z,9.60
2018-09-12T10:34:44.711Z,8.80
2018-09-12T10:37:08.675Z,7.27
2018-09-12T10:39:32.529Z,6.40
2018-09-12T10:41:56.368Z,7.23
2018-09-12T10:44:20.222Z,6.77
2018-09-12T10:46:44.070Z,6.47
2018-09-12T10:49:08.380Z,6.17
2018-09-12T10:51:32.366Z,5.23
2018-09-12T10:53:56.216Z,4.53
2018-09-12T10:56:20.067Z,4.37
2018-09-12T10:58:43.934Z,3.40
2018-09-12T11:01:07.842Z,4.77
2018-09-12T11:03:31.809Z,3.27
2018-09-12T11:05:55.679Z,3.77
2018-09-12T11:08:19.536Z,5.17
2018-09-12T11:10:43.470Z,4.93
2018-09-12T11:13:07.476Z,3.87
2018-09-12T11:15:31.351Z,3.17
2018-09-12T11:17:55.204Z,1.90
2018-09-12T11:20:19.040Z,2.87
2018-09-12T11:22:42.924Z,3.60
2018-09-12T11:25:06.771Z,1.63
2018-09-12T11:27:30.627Z,2.00
2018-09-12T11:29:54.515Z,1.90
2018-09-12T11:32:18.398Z,5.40
2018-09-12T11:34:42.476Z,4.10
2018-09-12T11:37:06.340Z,4.73
2018-09-12T11:39:30.248Z,1.50
2018-09-12T11:41:54.123Z,3.17
2018-09-12T11:44:18.180Z,2.67
2018-09-12T11:46:42.066Z,2.80
2018-09-12T11:49:05.975Z,1.90
2018-09-12T11:51:29.851Z,1.30
2018-09-12T11:53:53.681Z,2.50
2018-09-12T11:56:17.552Z,2.57
2018-09-12T11:58:41.457Z,4.67
2018-09-12T12:01:05.304Z,3.50
2018-09-12T12:03:29.173Z,2.07
2018-09-12T12:05:53.027Z,4.43
2018-09-12T12:08:17.227Z,1.23
2018-09-12T12:10:41.095Z,2.77
2018-09-12T12:13:04.955Z,1.27
2018-09-12T12:15:28.866Z,3.63
2018-09-12T12:17:52.695Z,4.40
2018-09-12T12:20:16.547Z,1.73
2018-09-12T12:22:40.398Z,4.57
2018-09-12T12:25:04.260Z,1.73
2018-09-12T12:27:28.107Z,1.17
2018-09-12T12:29:52.008Z,2.47
2018-09-12T12:32:15.979Z,5.50
2018-09-12T12:34:39.802Z,5.83
2018-09-12T12:37:03.659Z,4.13
2018-09-12T12:39:27.496Z,5.90
2018-09-12T12:41:51.326Z,0.97
2018-09-12T12:44:15.192Z,1.60
2018-09-12T12:46:39.052Z,3.20
2018-09-12T12:49:02.956Z,17.97
2018-09-12T12:51:26.803Z,2.10
2018-09-12T12:53:50.691Z,11.23
2018-09-12T12:56:14.643Z,5.50
2018-09-12T12:58:38.462Z,3.63
2018-09-12T13:01:02.457Z,1.80
2018-09-12T13:03:26.304Z,7.90
2018-09-12T13:05:50.291Z,6.53
2018-09-12T13:08:14.200Z,11.37
2018-09-12T13:10:38.076Z,8.57
2018-09-12T13:13:01.971Z,6.03
2018-09-12T13:15:25.846Z,9.60
2018-09-12T13:17:49.713Z,8.83
2018-09-12T13:20:13.586Z,14.43
2018-09-12T13:22:37.457Z,9.17
2018-09-12T13:25:01.390Z,3.07
2018-09-12T13:27:25.331Z,8.33
2018-09-12T13:29:49.079Z,8.90
2018-09-12T13:32:12.965Z,7.43
2018-09-12T13:34:36.883Z,7.73
2018-09-12T13:37:00.651Z,6.10
2018-09-12T13:39:24.588Z,11.40
2018-09-12T13:41:48.463Z,9.20
2018-09-12T13:44:12.339Z,9.47
2018-09-12T13:46:36.297Z,14.43
2018-09-12T13:49:00.204Z,7.07
2018-09-12T13:51:24.112Z,4.70
2018-09-12T13:53:47.972Z,3.27
2018-09-12T13:56:11.806Z,2.00
2018-09-12T13:58:35.709Z,4.20
2018-09-12T14:00:59.564Z,2.63
2018-09-12T14:03:23.554Z,11.50
2018-09-12T14:05:47.382Z,10.47
2018-09-12T14:08:11.415Z,7.33
2018-09-12T14:10:35.299Z,8.43
2018-09-12T14:12:59.288Z,4.63
2018-09-12T14:15:23.219Z,3.83
2018-09-12T14:17:47.102Z,7.90
2018-09-12T14:20:10.959Z,8.47
2018-09-12T14:22:35.315Z,3.80
2018-09-12T14:24:59.159Z,11.90
2018-09-12T14:27:22.971Z,11.57
2018-09-12T14:29:46.845Z,8.17
2018-09-12T14:32:10.794Z,6.77
2018-09-12T14:34:34.646Z,3.00
2018-09-12T14:36:58.528Z,2.37
2018-09-12T14:39:22.401Z,6.13
2018-09-12T14:41:46.263Z,3.60
2018-09-12T14:44:10.124Z,4.10
2018-09-12T14:46:34.125Z,2.63
2018-09-12T14:48:57.968Z,4.70
2018-09-12T14:51:21.834Z,2.83
2018-09-12T14:53:45.702Z,2.17
2018-09-12T14:56:09.559Z,2.37
2018-09-12T14:58:33.498Z,2.87
2018-09-12T15:00:57.373Z,2.67
2018-09-12T15:03:21.686Z,4.17
2018-09-12T15:05:45.571Z,2.43
2018-09-12T15:08:09.425Z,3.53
2018-09-12T15:10:33.363Z,1.40
2018-09-12T15:12:57.177Z,3.90
2018-09-12T15:15:21.267Z,5.03
2018-09-12T15:17:46.227Z,5.10
2018-09-12T15:20:10.124Z,1.07
2018-09-12T15:22:33.986Z,2.03
2018-09-12T15:24:57.860Z,2.67
2018-09-12T15:27:21.719Z,1.60
2018-09-12T15:29:45.899Z,1.20
2018-09-12T15:32:09.831Z,1.00
2018-09-12T15:34:33.713Z,2.37
2018-09-12T15:36:57.603Z,1.67
2018-09-12T15:39:21.455Z,2.33
2018-09-12T15:41:45.423Z,2.20
2018-09-12T15:44:09.264Z,2.77
2018-09-12T15:46:33.128Z,1.80
2018-09-12T15:48:56.999Z,2.10
2018-09-12T15:51:20.951Z,2.37
2018-09-12T15:53:44.798Z,3.60
2018-09-12T15:56:08.712Z,5.10
2018-09-12T15:58:32.636Z,4.03
2018-09-12T16:00:56.480Z,3.03
2018-09-12T16:03:20.478Z,2.47
2018-09-12T16:05:44.324Z,3.30
2018-09-12T16:08:08.192Z,3.70
2018-09-12T16:10:32.059Z,2.00
2018-09-12T16:12:55.939Z,4.10
2018-09-12T16:15:19.973Z,4.37
2018-09-12T16:17:43.785Z,3.20
2018-09-12T16:20:07.700Z,6.10
2018-09-12T16:22:31.603Z,3.13
2018-09-12T16:24:55.501Z,2.93
2018-09-12T16:27:20.087Z,4.70
2018-09-12T16:29:43.933Z,3.83
2018-09-12T16:32:07.819Z,2.13
2018-09-12T16:34:31.716Z,2.97
2018-09-12T16:36:55.610Z,2.87
2018-09-12T16:39:19.627Z,2.47
2018-09-12T16:41:43.567Z,2.80
2018-09-12T16:44:07.449Z,3.00
2018-09-12T16:46:31.300Z,3.10
2018-09-12T16:48:55.252Z,3.33
2018-09-12T16:51:19.139Z,1.63
2018-09-12T16:53:43.006Z,1.57
2018-09-12T16:56:06.920Z,1.87
2018-09-12T16:58:30.889Z,3.53
2018-09-12T17:00:54.793Z,2.30
2018-09-12T17:03:18.717Z,3.97
2018-09-12T17:05:43.240Z,1.20
2018-09-12T17:08:07.117Z,1.80
2018-09-12T17:10:30.996Z,2.13
2018-09-12T17:12:54.888Z,2.10
2018-09-12T17:15:18.772Z,1.37
2018-09-12T17:17:42.787Z,1.10
2018-09-12T17:20:07.730Z,1.20
2018-09-12T17:22:31.576Z,2.97
2018-09-12T17:24:55.541Z,0.93
2018-09-12T17:27:19.628Z,4.97
2018-09-12T17:29:43.638Z,1.60
2018-09-12T17:32:07.512Z,1.07
2018-09-12T17:34:31.424Z,1.50
2018-09-12T17:36:55.331Z,1.30
2018-09-12T17:39:19.228Z,1.40
2018-09-12T17:41:43.129Z,1.50
2018-09-12T17:44:07.116Z,2.50
2018-09-12T17:46:31.161Z,5.17
2018-09-12T17:48:55.122Z,2.13
2018-09-12T17:51:19.089Z,1.20
2018-09-12T17:53:43.006Z,1.83
2018-09-12T17:56:07.019Z,3.00
2018-09-12T17:58:31.038Z,3.07
2018-09-12T18:00:54.986Z,1.97
2018-09-12T18:03:18.891Z,2.17
2018-09-12T18:05:42.890Z,3.60
2018-09-12T18:08:06.795Z,2.13
2018-09-12T18:10:30.853Z,2.07
2018-09-12T18:12:54.757Z,1.70
2018-09-12T18:15:18.674Z,1.87
2018-09-12T18:17:42.633Z,1.93
2018-09-12T18:20:06.769Z,1.90
2018-09-12T18:22:30.805Z,1.20
2018-09-12T18:24:54.905Z,1.57
2018-09-12T18:27:18.919Z,1.20
2018-09-12T18:29:43.035Z,2.30
2018-09-12T18:32:07.043Z,1.87
2018-09-12T18:34:31.467Z,1.03
2018-09-12T18:36:55.621Z,1.20
2018-09-12T18:39:19.662Z,2.80
2018-09-12T18:41:43.830Z,2.67
2018-09-12T18:44:08.228Z,3.97
2018-09-12T18:46:33.042Z,3.03
2018-09-12T18:48:57.221Z,1.30
2018-09-12T18:51:21.189Z,1.97
2018-09-12T18:53:45.230Z,3.33
2018-09-12T18:56:10.435Z,1.97
2018-09-12T18:58:34.548Z,2.70
2018-09-12T19:00:58.642Z,2.27
2018-09-12T19:03:22.645Z,5.20
2018-09-12T19:05:46.742Z,3.43
2018-09-12T19:08:10.953Z,2.30
2018-09-12T19:10:34.940Z,2.43
2018-09-12T19:12:59.034Z,2.80
2018-09-12T19:15:23.043Z,2.40
2018-09-12T19:17:47.169Z,1.77
2018-09-12T19:20:11.412Z,1.90
2018-09-12T19:22:35.516Z,2.47
2018-09-12T19:25:00.100Z,3.03
2018-09-12T19:27:24.165Z,3.27
2018-09-12T19:29:48.174Z,4.07
2018-09-12T19:32:12.319Z,2.67
2018-09-12T19:34:36.414Z,3.20
2018-09-12T19:37:00.485Z,1.63
2018-09-12T19:39:24.562Z,1.07
2018-09-12T19:41:48.752Z,3.10
2018-09-12T19:44:12.786Z,1.87
2018-09-12T19:46:36.708Z,3.90
2018-09-12T19:49:00.732Z,2.70
2018-09-12T19:51:24.773Z,1.93
2018-09-12T19:53:48.830Z,1.23
2018-09-12T19:56:13.876Z,1.87
2018-09-12T19:58:37.849Z,4.67
2018-09-12T20:01:01.982Z,5.17
2018-09-12T20:03:25.945Z,3.13
2018-09-12T20:05:49.917Z,3.30
2018-09-12T20:08:13.857Z,3.10
2018-09-12T20:10:37.751Z,1.77
2018-09-12T20:13:01.729Z,2.43
2018-09-12T20:15:25.703Z,1.43
2018-09-12T20:17:49.617Z,3.23
2018-09-12T20:20:13.541Z,3.13
2018-09-12T20:22:37.447Z,4.03
2018-09-12T20:25:01.459Z,4.00
2018-09-12T20:27:25.540Z,3.63
2018-09-12T20:29:49.611Z,3.77
2018-09-12T20:32:13.618Z,3.60
2018-09-12T20:34:37.478Z,4.20
2018-09-12T20:37:01.371Z,3.73
2018-09-12T20:39:25.433Z,4.17
2018-09-12T20:41:49.303Z,4.17
2018-09-12T20:44:13.183Z,4.87
2018-09-12T20:46:37.098Z,2.57
2018-09-12T20:49:00.939Z,3.27
2018-09-12T20:51:24.906Z,3.63
2018-09-12T20:53:48.764Z,4.73
2018-09-12T20:56:12.620Z,4.37
2018-09-12T20:58:36.516Z,3.03
2018-09-12T21:01:00.525Z,4.47
2018-09-12T21:03:24.427Z,3.63
2018-09-12T21:05:48.316Z,4.40
2018-09-12T21:08:12.263Z,3.17
2018-09-12T21:10:36.127Z,4.30
2018-09-12T21:13:00.040Z,3.77
2018-09-12T21:15:24.100Z,2.83
2018-09-12T21:17:47.940Z,4.03
2018-09-12T21:20:11.815Z,4.80
2018-09-12T21:22:35.726Z,5.53
2018-09-12T21:24:59.598Z,3.33
2018-09-12T21:27:23.571Z,3.20
2018-09-12T21:29:47.432Z,3.60
2018-09-12T21:32:11.321Z,3.40
2018-09-12T21:34:35.182Z,6.10
2018-09-12T21:36:59.077Z,6.40
2018-09-12T21:39:22.933Z,4.13
2018-09-12T21:41:47.072Z,4.40
2018-09-12T21:44:10.919Z,3.60
2018-09-12T21:46:34.763Z,3.77
2018-09-12T21:48:58.738Z,6.13
2018-09-12T21:51:22.580Z,5.60
2018-09-12T21:53:46.413Z,3.33
2018-09-12T21:56:10.339Z,3.33
2018-09-12T21:58:34.191Z,5.90
2018-09-12T22:00:58.530Z,5.53
2018-09-12T22:03:22.494Z,6.23
2018-09-12T22:05:46.381Z,6.33
2018-09-12T22:08:10.390Z,4.47
2018-09-12T22:10:34.158Z,3.63
2018-09-12T22:12:57.996Z,3.20
2018-09-12T22:15:22.012Z,3.13
2018-09-12T22:17:46.065Z,4.70
2018-09-12T22:20:09.910Z,3.20
2018-09-12T22:22:33.874Z,3.47
2018-09-12T22:24:57.713Z,5.33
2018-09-12T22:27:21.577Z,3.83
2018-09-12T22:29:45.446Z,5.10
2018-09-12T22:32:09.484Z,4.60
2018-09-12T22:34:33.359Z,3.70
2018-09-12T22:36:57.228Z,3.63
2018-09-12T22:39:21.197Z,4.50
2018-09-12T22:41:45.032Z,3.00
2018-09-12T22:44:08.909Z,3.03
2018-09-12T22:46:32.865Z,4.70
2018-09-12T22:48:56.710Z,3.53
2018-09-12T22:51:20.552Z,3.40
2018-09-12T22:53:44.503Z,4.30
2018-09-12T22:56:08.382Z,3.17
2018-09-12T22:58:32.259Z,6.80
2018-09-12T23:00:56.273Z,5.87
2018-09-12T23:03:20.140Z,4.50
2018-09-12T23:05:43.974Z,6.40
2018-09-12T23:08:07.855Z,3.67
2018-09-12T23:10:31.866Z,3.73
2018-09-12T23:12:55.833Z,3.17
2018-09-12T23:15:19.673Z,2.70
2018-09-12T23:17:43.516Z,4.57
2018-09-12T23:20:07.380Z,2.73
2018-09-12T23:22:31.270Z,2.80
2018-09-12T23:24:55.143Z,3.83
2018-09-12T23:27:18.995Z,3.40
2018-09-12T23:29:42.963Z,5.80
2018-09-12T23:32:06.790Z,4.47
2018-09-12T23:34:30.615Z,3.97
2018-09-12T23:36:54.519Z,4.60
2018-09-12T23:39:18.394Z,3.07
2018-09-12T23:41:42.445Z,3.10
2018-09-12T23:44:06.575Z,4.03
2018-09-12T23:46:30.442Z,3.33
2018-09-12T23:48:54.332Z,3.53
2018-09-12T23:51:18.450Z,2.93
2018-09-12T23:53:42.311Z,5.10
2018-09-12T23:56:06.232Z,2.87
2018-09-12T23:58:30.133Z,2.93
